createdAt,value
2022-08-16T00:01:40.838Z,23.52
2022-08-16T00:04:07.740Z,23.59
2022-08-16T00:06:39.195Z,23.34
2022-08-16T00:09:06.487Z,23.55
2022-08-16T00:11:33.430Z,23.18
2022-08-16T00:14:00.064Z,23.00
2022-08-16T00:17:01.026Z,22.90
2022-08-16T00:19:22.577Z,23.04
2022-08-16T00:21:53.105Z,22.92
2022-08-16T00:24:32.583Z,22.59
2022-08-16T00:27:01.354Z,22.85
2022-08-16T00:29:29.941Z,22.76
2022-08-16T00:32:01.103Z,22.77
2022-08-16T00:34:43.839Z,22.80
2022-08-16T00:37:20.371Z,23.06
2022-08-16T00:39:49.050Z,23.39
2022-08-16T00:42:30.558Z,23.08
2022-08-16T00:45:27.330Z,23.29
2022-08-16T00:47:54.813Z,23.11
2022-08-16T00:50:35.755Z,23.13
2022-08-16T00:53:06.294Z,23.08
2022-08-16T00:55:37.518Z,23.41
2022-08-16T00:58:05.031Z,22.81
2022-08-16T01:00:39.871Z,23.01
2022-08-16T01:03:11.802Z,23.22
2022-08-16T01:05:40.078Z,23.06
2022-08-16T01:08:35.824Z,23.38
2022-08-16T01:10:55.345Z,23.04
2022-08-16T01:13:29.705Z,23.28
2022-08-16T01:16:00.492Z,23.16
2022-08-16T01:18:40.412Z,23.11
2022-08-16T01:21:14.822Z,22.98
2022-08-16T01:24:03.208Z,23.05
2022-08-16T01:26:34.535Z,23.02
2022-08-16T01:29:10.001Z,23.00
2022-08-16T01:31:37.622Z,22.97
2022-08-16T01:34:09.916Z,23.31
2022-08-16T01:37:08.071Z,23.03
2022-08-16T01:39:35.827Z,22.73
2022-08-16T01:42:04.633Z,23.01
2022-08-16T01:44:39.481Z,22.64
2022-08-16T01:47:07.310Z,22.70
2022-08-16T01:49:45.472Z,22.92
2022-08-16T01:52:28.188Z,22.83
2022-08-16T01:54:57.390Z,23.10
2022-08-16T01:57:24.747Z,22.94
2022-08-16T01:59:54.684Z,22.95
2022-08-16T02:02:27.087Z,22.90
2022-08-16T02:04:55.053Z,22.76
2022-08-16T02:07:23.684Z,22.78
2022-08-16T02:09:57.052Z,22.62
2022-08-16T02:12:50.304Z,22.36
2022-08-16T02:15:13.169Z,21.93
2022-08-16T02:17:40.654Z,22.04
2022-08-16T02:20:11.698Z,22.23
2022-08-16T02:22:39.378Z,22.17
2022-08-16T02:25:10.455Z,22.34
2022-08-16T02:27:41.207Z,22.57
2022-08-16T02:30:37.350Z,22.71
2022-08-16T02:33:00.897Z,22.62
2022-08-16T02:35:29.291Z,22.77
2022-08-16T02:37:56.225Z,22.27
2022-08-16T02:40:23.697Z,22.02
2022-08-16T02:42:53.812Z,22.48
2022-08-16T02:45:24.799Z,22.57
2022-08-16T02:48:01.894Z,22.63
2022-08-16T02:50:54.153Z,22.83
2022-08-16T02:53:27.536Z,22.86
2022-08-16T02:55:54.241Z,23.12
2022-08-16T02:58:24.759Z,22.87
2022-08-16T03:00:55.918Z,22.72
2022-08-16T03:03:23.442Z,22.45
2022-08-16T03:05:53.111Z,22.42
2022-08-16T03:08:51.007Z,22.45
2022-08-16T03:11:17.965Z,22.20
2022-08-16T03:13:55.805Z,22.01
2022-08-16T03:16:37.792Z,22.04
2022-08-16T03:19:06.289Z,21.96
2022-08-16T03:21:37.960Z,22.03
2022-08-16T03:24:28.455Z,22.13
2022-08-16T03:26:53.313Z,22.11
2022-08-16T03:29:27.310Z,22.17
2022-08-16T03:31:56.943Z,22.24
2022-08-16T03:34:26.574Z,22.31
2022-08-16T03:36:53.361Z,22.42
2022-08-16T03:39:20.419Z,22.37
2022-08-16T03:41:50.661Z,22.42
2022-08-16T03:44:44.632Z,22.27
2022-08-16T03:47:05.093Z,22.35
2022-08-16T03:49:37.314Z,22.37
2022-08-16T03:52:04.436Z,22.43
2022-08-16T03:54:31.041Z,22.48
2022-08-16T03:56:58.642Z,22.43
2022-08-16T03:59:25.829Z,22.48
2022-08-16T04:01:56.730Z,22.38
2022-08-16T04:04:25.197Z,22.60
2022-08-16T04:06:59.458Z,22.64
2022-08-16T04:09:25.961Z,22.38
2022-08-16T04:11:52.958Z,22.39
2022-08-16T04:14:33.340Z,22.34
2022-08-16T04:17:01.740Z,22.39
2022-08-16T04:19:31.516Z,22.42
2022-08-16T04:21:58.518Z,22.17
2022-08-16T04:24:28.894Z,22.34
2022-08-16T04:26:55.674Z,22.56
2022-08-16T04:29:24.898Z,22.53
2022-08-16T04:31:56.836Z,22.44
2022-08-16T04:34:30.441Z,22.61
2022-08-16T04:36:58.997Z,22.68
2022-08-16T04:39:44.888Z,22.79
2022-08-16T04:42:18.903Z,22.82
2022-08-16T04:44:55.496Z,22.78
2022-08-16T04:47:33.172Z,22.71
2022-08-16T04:50:08.101Z,22.58
2022-08-16T04:52:35.950Z,22.80
2022-08-16T04:55:16.192Z,22.70
2022-08-16T04:57:43.506Z,22.63
2022-08-16T05:00:32.001Z,22.61
2022-08-16T05:03:07.093Z,22.76
2022-08-16T05:05:45.402Z,22.74
2022-08-16T05:08:27.955Z,22.94
2022-08-16T05:11:01.426Z,22.79
2022-08-16T05:13:40.311Z,22.84
2022-08-16T05:16:11.749Z,22.81
2022-08-16T05:18:38.591Z,22.78
2022-08-16T05:21:11.369Z,22.63
2022-08-16T05:23:39.248Z,22.57
2022-08-16T05:26:05.929Z,22.50
2022-08-16T05:28:46.677Z,22.40
2022-08-16T05:31:21.910Z,22.35
2022-08-16T05:33:53.554Z,22.27
2022-08-16T05:36:21.668Z,22.37
2022-08-16T05:38:49.062Z,22.36
2022-08-16T05:41:16.892Z,22.44
2022-08-16T05:43:46.839Z,22.44
2022-08-16T05:46:30.574Z,22.42
2022-08-16T05:49:04.017Z,22.34
2022-08-16T05:51:38.823Z,22.48
2022-08-16T05:54:09.597Z,22.56
2022-08-16T05:56:38.451Z,22.55
2022-08-16T05:59:06.146Z,22.60
2022-08-16T06:01:37.794Z,22.58
2022-08-16T06:04:13.574Z,22.56
2022-08-16T06:06:56.765Z,22.61
2022-08-16T06:09:25.218Z,22.50
2022-08-16T06:11:52.377Z,22.39
2022-08-16T06:14:19.118Z,22.34
2022-08-16T06:16:50.539Z,22.48
2022-08-16T06:19:17.795Z,22.49
2022-08-16T06:21:44.480Z,22.68
2022-08-16T06:24:53.391Z,23.00
2022-08-16T06:26:58.486Z,22.86
2022-08-16T06:29:25.173Z,23.02
2022-08-16T06:31:51.860Z,22.85
2022-08-16T06:34:55.373Z,22.65
2022-08-16T06:37:05.432Z,22.90
2022-08-16T06:39:34.529Z,22.95
2022-08-16T06:42:18.342Z,23.05
2022-08-16T06:44:46.087Z,23.41
2022-08-16T06:47:17.122Z,23.50
2022-08-16T06:49:53.870Z,23.46
2022-08-16T06:53:08.658Z,23.82
2022-08-16T06:55:13.540Z,23.89
2022-08-16T06:57:41.141Z,23.98
2022-08-16T07:00:17.545Z,23.88
2022-08-16T07:02:53.582Z,23.95
2022-08-16T07:05:27.363Z,24.06
2022-08-16T07:08:10.580Z,23.96
2022-08-16T07:10:38.786Z,24.05
2022-08-16T07:13:11.733Z,23.99
2022-08-16T07:15:50.671Z,24.10
2022-08-16T07:18:21.296Z,23.94
2022-08-16T07:20:53.443Z,24.06
2022-08-16T07:23:38.691Z,24.41
2022-08-16T07:26:08.118Z,24.01
2022-08-16T07:28:35.435Z,24.13
2022-08-16T07:31:03.207Z,23.72
2022-08-16T07:33:52.951Z,23.63
2022-08-16T07:36:21.724Z,23.70
2022-08-16T07:38:49.226Z,23.57
2022-08-16T07:41:16.807Z,23.80
2022-08-16T07:43:43.514Z,24.27
2022-08-16T07:46:38.077Z,24.49
2022-08-16T07:49:02.476Z,24.39
2022-08-16T07:51:33.119Z,25.07
2022-08-16T07:54:09.564Z,25.02
2022-08-16T07:56:37.689Z,25.23
2022-08-16T07:59:05.395Z,25.45
2022-08-16T08:01:32.070Z,25.60
2022-08-16T08:03:59.234Z,26.53
2022-08-16T08:06:31.259Z,26.72
2022-08-16T08:08:59.464Z,26.55
2022-08-16T08:11:27.997Z,26.85
2022-08-16T08:13:55.325Z,26.58
2022-08-16T08:16:30.100Z,26.75
2022-08-16T08:19:00.862Z,26.85
2022-08-16T08:22:01.177Z,26.47
2022-08-16T08:24:15.528Z,26.38
2022-08-16T08:26:43.051Z,26.79
2022-08-16T08:29:09.810Z,26.58
2022-08-16T08:31:41.037Z,26.76
2022-08-16T08:34:07.914Z,27.11
2022-08-16T08:36:37.120Z,26.50
2022-08-16T08:39:13.029Z,26.78
2022-08-16T08:41:40.521Z,26.54
2022-08-16T08:44:27.848Z,26.18
2022-08-16T08:47:00.107Z,25.88
2022-08-16T08:49:50.378Z,26.34
2022-08-16T08:52:34.441Z,26.14
2022-08-16T08:55:10.487Z,26.13
2022-08-16T08:57:40.764Z,25.86
2022-08-16T09:00:13.537Z,26.09
2022-08-16T09:02:43.083Z,26.06
2022-08-16T09:05:15.649Z,26.64
2022-08-16T09:08:00.855Z,26.19
2022-08-16T09:10:29.898Z,25.98
2022-08-16T09:12:57.584Z,25.96
2022-08-16T09:15:24.186Z,26.13
2022-08-16T09:17:54.838Z,26.18
2022-08-16T09:20:25.714Z,25.89
2022-08-16T09:22:53.007Z,26.24
2022-08-16T09:25:33.567Z,26.73
2022-08-16T09:28:02.355Z,26.97
2022-08-16T09:30:43.451Z,26.98
2022-08-16T09:33:12.767Z,27.24
2022-08-16T09:35:42.443Z,28.35
2022-08-16T09:38:12.891Z,29.05
2022-08-16T09:40:59.047Z,29.57
2022-08-16T09:43:53.336Z,29.21
2022-08-16T09:46:45.991Z,29.71
2022-08-16T09:48:59.206Z,29.30
2022-08-16T09:51:30.718Z,29.27
2022-08-16T09:54:03.668Z,29.09
2022-08-16T09:56:33.069Z,29.06
2022-08-16T09:59:05.562Z,28.55
2022-08-16T10:01:36.424Z,28.32
2022-08-16T10:04:04.541Z,28.24
2022-08-16T10:06:34.248Z,28.25
2022-08-16T10:09:08.197Z,28.61
2022-08-16T10:11:56.041Z,28.91
2022-08-16T10:14:37.723Z,29.13
2022-08-16T10:17:05.244Z,29.36
2022-08-16T10:19:33.095Z,30.14
2022-08-16T10:22:04.921Z,29.70
2022-08-16T10:24:32.950Z,30.42
2022-08-16T10:27:25.177Z,30.15
2022-08-16T10:30:01.520Z,29.90
2022-08-16T10:32:32.673Z,30.12
2022-08-16T10:35:00.232Z,30.34
2022-08-16T10:37:36.031Z,30.40
2022-08-16T10:40:28.375Z,30.22
2022-08-16T10:42:56.227Z,29.97
2022-08-16T10:45:23.029Z,30.61
2022-08-16T10:47:51.667Z,30.95
2022-08-16T10:50:31.295Z,31.31
2022-08-16T10:52:59.321Z,31.36
2022-08-16T10:55:44.742Z,30.95
2022-08-16T10:58:16.056Z,29.91
2022-08-16T11:00:46.174Z,29.20
2022-08-16T11:06:03.345Z,29.68
2022-08-16T11:08:40.753Z,29.54
2022-08-16T11:11:19.211Z,29.73
2022-08-16T11:14:10.830Z,29.72
2022-08-16T11:19:22.610Z,30.84
2022-08-16T11:24:43.350Z,30.19
2022-08-16T11:27:20.568Z,31.33
2022-08-16T11:29:49.855Z,31.56
2022-08-16T11:32:20.338Z,31.90
2022-08-16T11:35:10.936Z,31.98
2022-08-16T11:40:33.151Z,32.08
2022-08-16T11:43:04.603Z,31.83
2022-08-16T11:45:33.805Z,31.64
2022-08-16T11:48:02.858Z,31.18
2022-08-16T11:50:33.249Z,30.65
2022-08-16T11:53:04.195Z,31.88
2022-08-16T11:55:31.785Z,32.16
2022-08-16T11:58:00.145Z,31.83
2022-08-16T12:00:49.658Z,31.15
2022-08-16T12:03:14.446Z,31.38
2022-08-16T12:05:44.022Z,31.24
2022-08-16T12:08:11.384Z,30.62
2022-08-16T12:10:40.808Z,30.87
2022-08-16T12:13:10.508Z,32.07
2022-08-16T12:15:37.723Z,31.95
2022-08-16T12:18:06.771Z,31.50
2022-08-16T12:20:37.208Z,31.02
2022-08-16T12:23:04.355Z,30.13
2022-08-16T12:25:33.640Z,29.84
2022-08-16T12:28:02.881Z,29.47
2022-08-16T12:30:36.360Z,29.51
2022-08-16T12:33:06.667Z,29.42
2022-08-16T12:35:34.535Z,29.42
2022-08-16T12:38:38.039Z,29.09
2022-08-16T12:40:50.874Z,28.65
2022-08-16T12:43:23.539Z,28.39
2022-08-16T12:45:53.598Z,28.05
2022-08-16T12:48:43.322Z,28.18
2022-08-16T12:51:19.352Z,28.37
2022-08-16T12:53:52.350Z,28.63
2022-08-16T12:56:20.836Z,28.81
2022-08-16T12:58:51.830Z,28.87
2022-08-16T13:01:22.658Z,28.72
2022-08-16T13:03:59.280Z,29.02
2022-08-16T13:06:36.829Z,28.88
2022-08-16T13:09:18.270Z,28.71
2022-08-16T13:11:58.014Z,29.34
2022-08-16T13:14:36.005Z,29.11
2022-08-16T13:17:06.533Z,29.08
2022-08-16T13:19:56.383Z,29.05
2022-08-16T13:22:21.982Z,28.57
2022-08-16T13:24:50.579Z,27.74
2022-08-16T13:27:17.930Z,27.61
2022-08-16T13:29:45.211Z,27.65
2022-08-16T13:32:39.357Z,27.38
2022-08-16T13:35:04.971Z,27.97
2022-08-16T13:37:32.515Z,29.21
2022-08-16T13:40:05.237Z,30.29
2022-08-16T13:42:32.381Z,30.48
2022-08-16T13:45:08.880Z,30.88
2022-08-16T13:47:35.463Z,31.61
2022-08-16T13:50:02.714Z,31.71
2022-08-16T13:52:34.116Z,30.71
2022-08-16T13:55:06.727Z,30.31
2022-08-16T13:58:35.306Z,31.35
2022-08-16T14:00:30.958Z,31.67
2022-08-16T14:02:59.215Z,32.17
2022-08-16T14:05:27.015Z,32.05
2022-08-16T14:07:53.871Z,31.51
2022-08-16T14:10:20.540Z,31.25
2022-08-16T14:12:47.929Z,31.51
2022-08-16T14:15:15.969Z,31.63
2022-08-16T14:18:14.785Z,31.54
2022-08-16T14:20:29.610Z,31.52
2022-08-16T14:22:56.208Z,31.21
2022-08-16T14:25:23.525Z,31.23
2022-08-16T14:27:54.259Z,30.74
2022-08-16T14:30:21.662Z,30.94
2022-08-16T14:32:50.838Z,30.74
2022-08-16T14:35:36.500Z,30.41
2022-08-16T14:38:11.090Z,30.75
2022-08-16T14:40:47.185Z,30.93
2022-08-16T14:43:19.090Z,30.57
2022-08-16T14:45:46.289Z,29.99
2022-08-16T14:48:21.471Z,30.62
2022-08-16T14:50:51.990Z,30.87
2022-08-16T14:53:20.489Z,30.68
2022-08-16T14:55:48.419Z,31.20
2022-08-16T14:58:19.580Z,32.01
2022-08-16T15:00:49.974Z,31.86
2022-08-16T15:03:18.676Z,31.74
2022-08-16T15:05:48.334Z,31.19
2022-08-16T15:08:17.132Z,31.04
2022-08-16T15:10:46.995Z,30.88
2022-08-16T15:13:14.088Z,31.03
2022-08-16T15:15:42.136Z,31.51
2022-08-16T15:18:12.287Z,30.85
2022-08-16T15:20:41.144Z,31.24
2022-08-16T15:23:09.217Z,31.02
2022-08-16T15:25:42.370Z,31.31
2022-08-16T15:28:31.070Z,31.14
2022-08-16T15:31:00.903Z,30.79
2022-08-16T15:33:32.055Z,30.73
2022-08-16T15:35:59.427Z,30.43
2022-08-16T15:38:43.525Z,30.73
2022-08-16T15:41:28.769Z,30.83
2022-08-16T15:44:04.799Z,30.90
2022-08-16T15:46:54.798Z,30.32
2022-08-16T15:49:23.516Z,30.32
2022-08-16T15:51:51.930Z,30.45
2022-08-16T15:54:30.308Z,30.76
2022-08-16T15:57:04.360Z,30.77
2022-08-16T15:59:48.644Z,30.61
2022-08-16T16:02:27.395Z,30.18
2022-08-16T16:04:56.661Z,30.16
2022-08-16T16:07:23.534Z,30.23
2022-08-16T16:09:53.245Z,29.64
2022-08-16T16:12:50.315Z,30.38
2022-08-16T16:15:07.285Z,30.50
2022-08-16T16:17:33.981Z,30.42
2022-08-16T16:20:03.942Z,29.65
2022-08-16T16:22:30.773Z,29.90
2022-08-16T16:24:57.294Z,29.72
2022-08-16T16:27:24.015Z,29.47
2022-08-16T16:30:01.614Z,30.06
2022-08-16T16:32:35.052Z,29.65
2022-08-16T16:35:06.092Z,30.04
2022-08-16T16:37:33.019Z,30.32
2022-08-16T16:40:01.197Z,29.83
2022-08-16T16:42:31.390Z,29.12
2022-08-16T16:45:01.693Z,29.37
2022-08-16T16:47:30.117Z,29.43
2022-08-16T16:50:09.226Z,29.37
2022-08-16T16:52:44.373Z,29.28
2022-08-16T16:55:14.741Z,29.23
2022-08-16T16:58:00.610Z,29.04
2022-08-16T17:00:37.524Z,29.40
2022-08-16T17:03:05.519Z,29.20
2022-08-16T17:05:32.609Z,29.39
2022-08-16T17:07:59.992Z,29.52
2022-08-16T17:10:46.404Z,29.61
2022-08-16T17:13:14.524Z,29.44
2022-08-16T17:15:41.853Z,29.17
2022-08-16T17:19:02.024Z,28.70
2022-08-16T17:20:54.839Z,28.64
2022-08-16T17:23:21.417Z,29.02
2022-08-16T17:26:10.406Z,29.30
2022-08-16T17:28:58.441Z,29.13
2022-08-16T17:31:23.824Z,28.81
2022-08-16T17:34:30.591Z,28.78
2022-08-16T17:36:54.555Z,29.04
2022-08-16T17:39:21.533Z,28.98
2022-08-16T17:41:50.855Z,28.71
2022-08-16T17:44:19.254Z,28.88
2022-08-16T17:46:51.801Z,28.79
2022-08-16T17:49:19.085Z,28.77
2022-08-16T17:51:45.569Z,28.58
2022-08-16T17:54:16.987Z,28.54
2022-08-16T17:56:56.679Z,28.25
2022-08-16T17:59:24.150Z,28.15
2022-08-16T18:01:50.786Z,28.56
2022-08-16T18:04:48.331Z,28.44
2022-08-16T18:07:05.327Z,28.45
2022-08-16T18:09:31.902Z,28.36
2022-08-16T18:11:58.676Z,28.16
2022-08-16T18:14:50.051Z,28.34
2022-08-16T18:17:12.850Z,28.38
2022-08-16T18:19:39.335Z,28.31
2022-08-16T18:22:21.058Z,27.99
2022-08-16T18:24:49.245Z,27.75
2022-08-16T18:27:25.509Z,27.93
2022-08-16T18:29:53.134Z,27.55
2022-08-16T18:32:23.083Z,27.13
2022-08-16T18:34:54.127Z,27.34
2022-08-16T18:37:20.879Z,27.46
2022-08-16T18:39:47.498Z,27.47
2022-08-16T18:42:15.109Z,27.39
2022-08-16T18:44:43.720Z,27.29
2022-08-16T18:47:10.585Z,27.41
2022-08-16T18:49:37.197Z,26.96
2022-08-16T18:52:04.299Z,27.23
2022-08-16T18:54:32.568Z,27.12
2022-08-16T18:56:59.198Z,26.85
2022-08-16T18:59:27.270Z,26.66
2022-08-16T19:01:55.491Z,26.66
2022-08-16T19:04:55.401Z,26.66
2022-08-16T19:07:14.915Z,26.47
2022-08-16T19:09:41.433Z,26.42
2022-08-16T19:12:08.246Z,26.29
2022-08-16T19:14:34.811Z,26.59
2022-08-16T19:17:01.282Z,26.32
2022-08-16T19:19:27.814Z,26.18
2022-08-16T19:21:54.289Z,26.30
2022-08-16T19:24:20.937Z,26.19
2022-08-16T19:26:49.496Z,26.01
2022-08-16T19:29:16.032Z,25.74
2022-08-16T19:31:44.223Z,25.96
2022-08-16T19:34:11.296Z,25.86
2022-08-16T19:36:39.636Z,25.85
2022-08-16T19:39:15.153Z,25.42
2022-08-16T19:41:52.012Z,25.75
2022-08-16T19:44:21.887Z,25.40
2022-08-16T19:46:49.201Z,25.55
2022-08-16T19:49:16.860Z,25.77
2022-08-16T19:51:44.928Z,26.01
2022-08-16T19:54:11.477Z,25.73
2022-08-16T19:56:37.947Z,25.60
2022-08-16T19:59:21.767Z,25.31
2022-08-16T20:01:52.171Z,25.39
2022-08-16T20:04:19.626Z,25.35
2022-08-16T20:06:47.204Z,25.29
2022-08-16T20:09:15.563Z,25.24
2022-08-16T20:11:46.634Z,25.30
2022-08-16T20:14:24.876Z,25.25
2022-08-16T20:16:54.474Z,25.23
2022-08-16T20:19:21.124Z,25.21
2022-08-16T20:21:47.597Z,24.79
2022-08-16T20:24:33.401Z,24.97
2022-08-16T20:27:02.525Z,24.76
2022-08-16T20:29:29.959Z,24.75
2022-08-16T20:31:56.510Z,24.55
2022-08-16T20:34:23.057Z,24.41
2022-08-16T20:36:50.115Z,24.35
2022-08-16T20:39:16.951Z,24.39
2022-08-16T20:41:44.034Z,24.25
2022-08-16T20:44:11.912Z,24.63
2022-08-16T20:46:39.000Z,24.38
2022-08-16T20:49:08.880Z,24.84
2022-08-16T20:51:49.412Z,24.93
2022-08-16T20:54:16.522Z,24.89
2022-08-16T20:56:43.010Z,24.75
2022-08-16T20:59:09.849Z,24.72
2022-08-16T21:01:46.329Z,24.90
2022-08-16T21:04:17.124Z,24.82
2022-08-16T21:06:45.461Z,24.85
2022-08-16T21:09:25.425Z,24.85
2022-08-16T21:11:53.511Z,25.03
2022-08-16T21:14:20.033Z,25.04
2022-08-16T21:16:46.521Z,24.92
2022-08-16T21:19:13.236Z,24.72
2022-08-16T21:21:39.802Z,24.79
2022-08-16T21:24:06.377Z,24.84
2022-08-16T21:26:33.301Z,24.88
2022-08-16T21:29:07.642Z,24.92
2022-08-16T21:31:34.349Z,24.89
2022-08-16T21:34:02.253Z,24.87
2022-08-16T21:36:35.877Z,24.76
2022-08-16T21:39:05.593Z,24.76
2022-08-16T21:41:32.714Z,24.69
2022-08-16T21:43:59.170Z,24.84
2022-08-16T21:46:26.052Z,24.27
2022-08-16T21:48:52.550Z,24.14
2022-08-16T21:51:19.222Z,23.97
2022-08-16T21:53:45.692Z,24.04
2022-08-16T21:56:17.172Z,23.70
2022-08-16T21:58:45.837Z,23.97
2022-08-16T22:01:12.899Z,23.73
2022-08-16T22:03:40.052Z,23.38
2022-08-16T22:06:14.098Z,23.65
2022-08-16T22:08:50.188Z,23.79
2022-08-16T22:11:32.276Z,23.58
2022-08-16T22:13:59.672Z,23.74
2022-08-16T22:16:37.255Z,23.66
2022-08-16T22:19:04.465Z,23.41
2022-08-16T22:21:32.223Z,23.52
2022-08-16T22:23:59.809Z,23.61
2022-08-16T22:26:29.943Z,23.36
2022-08-16T22:29:01.507Z,23.56
2022-08-16T22:31:28.675Z,23.52
2022-08-16T22:33:56.886Z,23.38
2022-08-16T22:36:28.763Z,23.14
2022-08-16T22:38:57.941Z,22.87
2022-08-16T22:41:26.216Z,23.05
2022-08-16T22:43:52.857Z,23.06
2022-08-16T22:46:19.567Z,23.27
2022-08-16T22:48:46.496Z,23.19
2022-08-16T22:51:12.985Z,22.77
2022-08-16T22:53:39.456Z,23.08
2022-08-16T22:56:06.216Z,23.10
2022-08-16T22:58:36.573Z,23.15
2022-08-16T23:01:05.947Z,22.97
2022-08-16T23:03:32.822Z,23.08
2022-08-16T23:06:00.528Z,22.97
2022-08-16T23:08:38.393Z,23.02
2022-08-16T23:11:12.317Z,22.94
2022-08-16T23:13:49.955Z,22.93
2022-08-16T23:16:22.377Z,22.80
2022-08-16T23:18:49.458Z,22.51
2022-08-16T23:21:18.035Z,22.75
2022-08-16T23:23:46.654Z,22.82
2022-08-16T23:26:44.674Z,22.76
2022-08-16T23:29:04.339Z,22.58
2022-08-16T23:31:31.593Z,22.33
2022-08-16T23:33:58.233Z,22.41
2022-08-16T23:36:24.818Z,22.41
2022-08-16T23:38:51.272Z,22.37
2022-08-16T23:41:17.812Z,22.26
2022-08-16T23:43:44.341Z,22.13
2022-08-16T23:46:16.260Z,22.06
2022-08-16T23:49:57.072Z,22.26
2022-08-16T23:51:30.216Z,22.30
2022-08-16T23:53:56.824Z,22.14
2022-08-16T23:56:23.381Z,22.13
2022-08-16T23:58:54.525Z,21.87
